createdAt,value
2019-05-07T00:01:16.007Z,6.23
2019-05-07T00:03:45.812Z,6.24
2019-05-07T00:06:15.860Z,6.34
2019-05-07T00:08:45.971Z,6.47
2019-05-07T00:11:16.580Z,6.47
2019-05-07T00:13:46.733Z,6.58
2019-05-07T00:16:18.045Z,6.72
2019-05-07T00:18:48.141Z,6.72
2019-05-07T00:21:18.680Z,6.93
2019-05-07T00:23:48.712Z,6.93
2019-05-07T00:26:18.777Z,7.09
2019-05-07T00:28:48.239Z,7.09
2019-05-07T00:31:18.204Z,6.39
2019-05-07T00:33:47.915Z,6.39
2019-05-07T00:36:37.818Z,5.64
2019-05-07T00:39:35.607Z,5.48
2019-05-07T00:42:32.174Z,5.22
2019-05-07T00:45:16.901Z,5.22
2019-05-07T00:47:56.013Z,5.42
2019-05-07T00:50:26.459Z,5.34
2019-05-07T00:52:56.598Z,5.34
2019-05-07T00:55:26.574Z,5.48
2019-05-07T00:57:57.884Z,5.48
2019-05-07T01:00:28.191Z,5.59
2019-05-07T01:02:59.789Z,5.56
2019-05-07T01:05:30.011Z,5.59
2019-05-07T01:08:02.587Z,5.68
2019-05-07T01:10:34.478Z,5.68
2019-05-07T01:13:05.127Z,5.62
2019-05-07T01:15:38.757Z,5.63
2019-05-07T01:18:12.907Z,5.63
2019-05-07T01:20:44.431Z,5.49
2019-05-07T01:23:14.572Z,5.51
2019-05-07T01:25:46.864Z,5.51
2019-05-07T01:28:17.313Z,5.61
2019-05-07T01:30:47.747Z,5.66
2019-05-07T01:33:26.095Z,5.62
2019-05-07T01:36:22.607Z,5.56
2019-05-07T01:38:52.323Z,5.56
2019-05-07T01:41:24.119Z,5.69
2019-05-07T01:43:54.543Z,5.80
2019-05-07T01:46:25.226Z,5.80
2019-05-07T01:48:57.568Z,5.78
2019-05-07T01:51:27.473Z,5.76
2019-05-07T01:53:57.499Z,5.83
2019-05-07T01:56:27.726Z,5.82
2019-05-07T01:58:57.426Z,5.80
2019-05-07T02:01:30.208Z,5.83
2019-05-07T02:04:12.782Z,5.79
2019-05-07T02:07:02.800Z,5.75
2019-05-07T02:10:02.642Z,5.73
2019-05-07T02:12:36.619Z,5.55
2019-05-07T02:15:07.877Z,5.55
2019-05-07T02:17:39.196Z,5.57
2019-05-07T02:20:09.427Z,5.56
2019-05-07T02:22:39.486Z,5.67
2019-05-07T02:25:09.530Z,5.66
2019-05-07T02:27:39.392Z,5.66
2019-05-07T02:30:09.571Z,5.71
2019-05-07T02:32:44.503Z,5.65
2019-05-07T02:35:14.828Z,5.63
2019-05-07T02:37:57.237Z,5.67
2019-05-07T02:40:48.111Z,5.70
2019-05-07T02:43:18.572Z,5.69
2019-05-07T02:46:20.581Z,5.75
2019-05-07T02:48:42.847Z,5.82
2019-05-07T02:51:25.775Z,5.82
2019-05-07T02:54:04.781Z,5.79
2019-05-07T02:56:34.904Z,5.79
2019-05-07T02:59:06.409Z,5.75
2019-05-07T03:01:36.316Z,5.75
2019-05-07T03:04:06.194Z,5.71
2019-05-07T03:06:35.798Z,5.58
2019-05-07T03:09:07.515Z,5.56
2019-05-07T03:11:37.201Z,5.56
2019-05-07T03:14:06.941Z,5.58
2019-05-07T03:16:43.638Z,5.60
2019-05-07T03:19:09.496Z,5.56
2019-05-07T03:21:55.607Z,5.56
2019-05-07T03:24:52.950Z,5.57
2019-05-07T03:27:23.641Z,5.50
2019-05-07T03:30:18.334Z,5.48
2019-05-07T03:32:58.152Z,5.51
2019-05-07T03:35:45.845Z,5.50
2019-05-07T03:38:14.091Z,5.52
2019-05-07T03:40:44.986Z,5.58
2019-05-07T03:43:14.742Z,5.62
2019-05-07T03:46:06.524Z,5.68
2019-05-07T03:48:36.726Z,5.68
2019-05-07T03:51:06.434Z,5.74
2019-05-07T03:53:36.622Z,5.81
2019-05-07T03:56:06.195Z,5.81
2019-05-07T03:58:36.327Z,5.78
2019-05-07T04:01:07.438Z,5.97
2019-05-07T04:03:37.010Z,5.97
2019-05-07T04:06:07.064Z,6.09
2019-05-07T04:08:36.897Z,6.15
2019-05-07T04:11:06.513Z,6.08
2019-05-07T04:13:36.339Z,6.08
2019-05-07T04:16:08.725Z,6.12
2019-05-07T04:18:38.853Z,6.16
2019-05-07T04:21:08.716Z,6.06
2019-05-07T04:23:39.007Z,6.04
2019-05-07T04:26:34.815Z,6.04
2019-05-07T04:29:07.309Z,6.07
2019-05-07T04:31:43.703Z,5.98
2019-05-07T04:34:23.730Z,6.11
2019-05-07T04:36:54.214Z,6.16
2019-05-07T04:39:24.199Z,6.21
2019-05-07T04:41:56.013Z,6.24
2019-05-07T04:44:25.594Z,6.26
2019-05-07T04:46:55.309Z,6.29
2019-05-07T04:49:25.478Z,6.30
2019-05-07T04:52:03.886Z,6.26
2019-05-07T04:54:33.237Z,6.26
2019-05-07T04:57:03.714Z,6.30
2019-05-07T04:59:35.195Z,6.53
2019-05-07T05:02:18.120Z,6.53
2019-05-07T05:04:48.529Z,6.63
2019-05-07T05:07:22.321Z,6.63
2019-05-07T05:09:54.318Z,6.63
2019-05-07T05:12:24.014Z,6.65
2019-05-07T05:14:53.836Z,6.65
2019-05-07T05:17:23.973Z,6.65
2019-05-07T05:19:55.734Z,6.80
2019-05-07T05:22:47.401Z,6.80
2019-05-07T05:25:32.300Z,6.89
2019-05-07T05:28:02.133Z,6.87
2019-05-07T05:30:42.449Z,6.93
2019-05-07T05:33:12.760Z,6.92
2019-05-07T05:35:43.347Z,6.97
2019-05-07T05:38:13.708Z,6.92
2019-05-07T05:40:44.038Z,6.97
2019-05-07T05:43:31.780Z,6.95
2019-05-07T05:46:02.813Z,6.99
2019-05-07T05:48:33.396Z,7.12
2019-05-07T05:51:22.867Z,7.11
2019-05-07T05:54:03.372Z,7.14
2019-05-07T05:56:58.125Z,7.10
2019-05-07T05:59:55.480Z,7.10
2019-05-07T06:02:47.568Z,7.22
2019-05-07T06:05:34.818Z,7.23
2019-05-07T06:08:17.678Z,7.25
2019-05-07T06:11:04.061Z,7.35
2019-05-07T06:13:57.090Z,7.37
2019-05-07T06:16:32.759Z,7.34
2019-05-07T06:19:24.117Z,7.34
2019-05-07T06:22:02.184Z,7.40
2019-05-07T06:24:42.674Z,7.40
2019-05-07T06:27:12.838Z,7.45
2019-05-07T06:29:45.329Z,7.53
2019-05-07T06:32:19.339Z,7.53
2019-05-07T06:34:49.027Z,7.49
2019-05-07T06:37:19.074Z,7.49
2019-05-07T06:40:02.620Z,7.42
2019-05-07T06:43:03.129Z,7.49
2019-05-07T06:45:36.834Z,7.66
2019-05-07T06:48:06.555Z,7.68
2019-05-07T06:50:36.952Z,7.69
2019-05-07T06:53:06.820Z,7.78
2019-05-07T06:55:36.471Z,7.98
2019-05-07T06:58:08.317Z,8.17
2019-05-07T07:00:56.879Z,8.38
2019-05-07T07:03:53.130Z,8.41
2019-05-07T07:06:27.307Z,8.24
2019-05-07T07:09:19.636Z,8.43
2019-05-07T07:11:54.633Z,8.34
2019-05-07T07:14:26.171Z,8.39
2019-05-07T07:16:55.986Z,8.25
2019-05-07T07:19:26.853Z,8.52
2019-05-07T07:21:57.176Z,8.52
2019-05-07T07:24:27.343Z,8.53
2019-05-07T07:26:59.584Z,8.61
2019-05-07T07:29:32.515Z,8.65
2019-05-07T07:32:04.677Z,8.49
2019-05-07T07:34:43.396Z,8.67
2019-05-07T07:37:28.916Z,8.90
2019-05-07T07:40:16.701Z,8.86
2019-05-07T07:42:46.866Z,8.82
2019-05-07T07:45:18.496Z,8.93
2019-05-07T07:47:48.847Z,8.79
2019-05-07T07:50:22.414Z,8.97
2019-05-07T07:52:53.298Z,9.95
2019-05-07T07:55:33.025Z,9.95
2019-05-07T07:58:31.643Z,11.33
2019-05-07T08:01:19.438Z,12.46
2019-05-07T08:03:49.530Z,12.72
2019-05-07T08:06:19.311Z,11.79
2019-05-07T08:08:49.156Z,11.34
2019-05-07T08:11:18.956Z,9.75
2019-05-07T08:13:52.894Z,8.51
2019-05-07T08:16:24.423Z,8.26
2019-05-07T08:18:54.200Z,7.86
2019-05-07T08:21:25.133Z,7.48
2019-05-07T08:23:55.059Z,7.37
2019-05-07T08:26:26.127Z,7.17
2019-05-07T08:28:56.072Z,7.30
2019-05-07T08:31:38.033Z,7.15
2019-05-07T08:34:25.869Z,7.29
2019-05-07T08:36:55.924Z,7.77
2019-05-07T08:39:25.543Z,7.56
2019-05-07T08:41:56.036Z,7.49
2019-05-07T08:44:34.355Z,7.57
2019-05-07T08:47:22.951Z,7.57
2019-05-07T08:49:53.333Z,7.92
2019-05-07T08:52:25.877Z,8.26
2019-05-07T08:54:54.793Z,8.37
2019-05-07T08:57:25.104Z,8.72
2019-05-07T09:00:00.302Z,8.83
2019-05-07T09:02:28.202Z,8.83
2019-05-07T09:04:58.987Z,8.36
2019-05-07T09:07:29.036Z,8.36
2019-05-07T09:10:02.518Z,8.83
2019-05-07T09:12:32.476Z,8.89
2019-05-07T09:15:02.593Z,9.32
2019-05-07T09:17:32.241Z,9.53
2019-05-07T09:20:04.259Z,9.53
2019-05-07T09:22:34.645Z,9.53
2019-05-07T09:25:04.688Z,9.44
2019-05-07T09:27:42.333Z,9.96
2019-05-07T09:30:46.349Z,10.11
2019-05-07T09:33:32.022Z,10.01
2019-05-07T09:36:02.350Z,10.13
2019-05-07T09:38:32.943Z,10.10
2019-05-07T09:41:05.174Z,9.87
2019-05-07T09:43:35.811Z,9.75
2019-05-07T09:46:05.485Z,10.12
2019-05-07T09:48:36.998Z,10.06
2019-05-07T09:51:06.771Z,10.31
2019-05-07T09:53:38.823Z,10.32
2019-05-07T09:56:09.735Z,10.56
2019-05-07T09:58:39.398Z,10.67
2019-05-07T10:01:09.291Z,10.38
2019-05-07T10:03:39.349Z,10.25
2019-05-07T10:06:12.418Z,10.38
2019-05-07T10:08:42.503Z,10.48
2019-05-07T10:11:14.030Z,10.66
2019-05-07T10:13:56.027Z,10.78
2019-05-07T10:16:34.953Z,10.34
2019-05-07T10:19:05.226Z,10.52
2019-05-07T10:21:35.012Z,10.79
2019-05-07T10:24:05.458Z,10.38
2019-05-07T10:26:40.069Z,10.98
2019-05-07T10:29:12.476Z,10.71
2019-05-07T10:31:42.395Z,10.70
2019-05-07T10:34:12.679Z,10.73
2019-05-07T10:36:42.346Z,10.68
2019-05-07T10:39:12.927Z,10.75
2019-05-07T10:41:43.122Z,11.03
2019-05-07T10:44:14.320Z,11.19
2019-05-07T10:47:03.233Z,11.26
2019-05-07T10:49:46.998Z,10.51
2019-05-07T10:52:16.804Z,10.86
2019-05-07T10:54:59.474Z,10.36
2019-05-07T10:57:18.571Z,10.47
2019-05-07T10:59:48.206Z,10.18
2019-05-07T11:02:23.041Z,10.40
2019-05-07T11:04:53.291Z,10.34
2019-05-07T11:07:22.855Z,10.37
2019-05-07T11:09:52.857Z,10.42
2019-05-07T11:12:22.908Z,10.66
2019-05-07T11:14:52.671Z,10.62
2019-05-07T11:17:38.348Z,10.64
2019-05-07T11:20:08.322Z,10.53
2019-05-07T11:22:38.032Z,10.45
2019-05-07T11:25:12.087Z,10.75
2019-05-07T11:27:42.269Z,10.54
2019-05-07T11:30:13.110Z,10.38
2019-05-07T11:32:43.050Z,10.72
2019-05-07T11:35:14.790Z,10.64
2019-05-07T11:37:45.304Z,10.46
2019-05-07T11:40:20.067Z,10.70
2019-05-07T11:43:13.074Z,10.70
2019-05-07T11:46:02.043Z,10.68
2019-05-07T11:48:36.220Z,10.60
2019-05-07T11:51:33.431Z,10.58
2019-05-07T11:54:13.941Z,10.86
2019-05-07T11:56:43.922Z,11.34
2019-05-07T11:59:13.743Z,11.53
2019-05-07T12:01:52.609Z,10.52
2019-05-07T12:04:23.384Z,11.03
2019-05-07T12:06:54.685Z,10.92
2019-05-07T12:09:24.864Z,11.02
2019-05-07T12:11:54.739Z,10.76
2019-05-07T12:14:32.567Z,11.03
2019-05-07T12:17:02.562Z,10.70
2019-05-07T12:19:37.771Z,11.06
2019-05-07T12:22:09.290Z,10.67
2019-05-07T12:24:41.862Z,10.97
2019-05-07T12:27:11.984Z,11.08
2019-05-07T12:29:42.391Z,11.00
2019-05-07T12:32:26.815Z,11.06
2019-05-07T12:35:02.298Z,10.91
2019-05-07T12:37:32.188Z,11.18
2019-05-07T12:40:07.332Z,11.02
2019-05-07T12:42:37.309Z,11.07
2019-05-07T12:45:07.340Z,11.31
2019-05-07T12:47:37.117Z,11.10
2019-05-07T12:50:06.886Z,11.31
2019-05-07T12:52:50.057Z,11.33
2019-05-07T12:55:26.116Z,11.28
2019-05-07T12:57:56.050Z,11.00
2019-05-07T13:00:52.884Z,10.88
2019-05-07T13:03:44.855Z,10.98
2019-05-07T13:06:14.489Z,10.59
2019-05-07T13:08:45.187Z,10.43
2019-05-07T13:11:15.231Z,10.84
2019-05-07T13:13:44.803Z,10.65
2019-05-07T13:16:14.440Z,10.88
2019-05-07T13:18:44.386Z,10.84
2019-05-07T13:21:14.700Z,11.11
2019-05-07T13:23:44.632Z,11.38
2019-05-07T13:26:14.592Z,11.17
2019-05-07T13:28:44.763Z,11.11
2019-05-07T13:31:17.868Z,11.27
2019-05-07T13:33:49.281Z,11.68
2019-05-07T13:36:19.513Z,11.16
2019-05-07T13:39:08.715Z,11.20
2019-05-07T13:42:02.082Z,11.43
2019-05-07T13:44:52.071Z,11.39
2019-05-07T13:47:42.919Z,10.97
2019-05-07T13:50:12.947Z,10.90
2019-05-07T13:52:43.449Z,10.88
2019-05-07T13:55:15.148Z,10.90
2019-05-07T13:57:45.010Z,10.53
2019-05-07T14:00:22.810Z,10.85
2019-05-07T14:02:54.916Z,10.98
2019-05-07T14:05:24.838Z,11.21
2019-05-07T14:07:58.207Z,11.16
2019-05-07T14:10:28.850Z,10.95
2019-05-07T14:13:09.512Z,10.97
2019-05-07T14:15:32.169Z,11.04
2019-05-07T14:18:02.703Z,10.96
2019-05-07T14:20:33.159Z,11.16
2019-05-07T14:23:03.354Z,11.40
2019-05-07T14:25:38.004Z,11.56
2019-05-07T14:28:07.745Z,11.57
2019-05-07T14:30:38.145Z,11.39
2019-05-07T14:33:15.514Z,11.22
2019-05-07T14:35:53.984Z,11.59
2019-05-07T14:38:28.571Z,10.97
2019-05-07T14:41:00.166Z,11.06
2019-05-07T14:43:52.220Z,11.36
2019-05-07T14:46:40.603Z,11.13
2019-05-07T14:48:59.132Z,11.46
2019-05-07T14:51:28.768Z,11.93
2019-05-07T14:54:01.791Z,12.35
2019-05-07T14:56:32.616Z,11.40
2019-05-07T14:59:05.261Z,11.68
2019-05-07T15:01:35.592Z,11.78
2019-05-07T15:04:07.099Z,12.02
2019-05-07T15:06:37.399Z,11.91
2019-05-07T15:09:08.663Z,11.79
2019-05-07T15:11:38.249Z,11.66
2019-05-07T15:14:07.971Z,12.00
2019-05-07T15:16:38.076Z,11.87
2019-05-07T15:19:07.729Z,11.97
2019-05-07T15:21:37.534Z,11.65
2019-05-07T15:24:07.722Z,11.18
2019-05-07T15:26:41.941Z,11.05
2019-05-07T15:29:14.965Z,10.96
2019-05-07T15:32:00.726Z,10.94
2019-05-07T15:34:32.772Z,11.07
2019-05-07T15:37:02.918Z,11.20
2019-05-07T15:39:32.938Z,11.27
2019-05-07T15:42:06.759Z,11.30
2019-05-07T15:44:36.597Z,11.18
2019-05-07T15:47:11.748Z,11.20
2019-05-07T15:49:42.377Z,11.06
2019-05-07T15:52:18.316Z,11.00
2019-05-07T15:54:48.530Z,11.13
2019-05-07T15:57:23.618Z,10.95
2019-05-07T16:00:05.108Z,11.00
2019-05-07T16:02:37.681Z,10.62
2019-05-07T16:05:07.756Z,10.69
2019-05-07T16:07:38.163Z,10.59
2019-05-07T16:10:08.606Z,10.85
2019-05-07T16:12:38.570Z,10.74
2019-05-07T16:15:08.388Z,10.91
2019-05-07T16:17:42.854Z,11.13
2019-05-07T16:20:14.264Z,11.08
2019-05-07T16:22:47.581Z,10.73
2019-05-07T16:25:17.243Z,10.71
2019-05-07T16:27:46.905Z,10.51
2019-05-07T16:30:17.210Z,10.55
2019-05-07T16:32:46.784Z,10.55
2019-05-07T16:35:16.821Z,10.69
2019-05-07T16:37:46.614Z,10.50
2019-05-07T16:40:17.393Z,10.13
2019-05-07T16:42:47.325Z,10.22
2019-05-07T16:45:18.433Z,10.27
2019-05-07T16:47:48.164Z,10.18
2019-05-07T16:50:18.583Z,9.99
2019-05-07T16:52:48.140Z,10.05
2019-05-07T16:55:22.395Z,10.22
2019-05-07T16:58:06.555Z,10.09
2019-05-07T17:00:42.405Z,10.19
2019-05-07T17:03:15.841Z,10.13
2019-05-07T17:05:45.719Z,10.13
2019-05-07T17:08:31.749Z,9.97
2019-05-07T17:11:04.051Z,9.94
2019-05-07T17:13:33.874Z,9.81
2019-05-07T17:16:05.163Z,9.67
2019-05-07T17:18:34.732Z,9.62
2019-05-07T17:21:04.963Z,9.82
2019-05-07T17:23:44.249Z,9.90
2019-05-07T17:26:06.108Z,9.86
2019-05-07T17:28:36.564Z,9.88
2019-05-07T17:31:08.408Z,9.81
2019-05-07T17:33:38.640Z,9.83
2019-05-07T17:36:08.574Z,9.82
2019-05-07T17:38:38.366Z,9.86
2019-05-07T17:41:13.624Z,9.86
2019-05-07T17:43:40.706Z,9.56
2019-05-07T17:46:12.284Z,9.64
2019-05-07T17:48:42.803Z,9.46
2019-05-07T17:51:34.658Z,9.61
2019-05-07T17:54:05.327Z,9.75
2019-05-07T17:56:35.193Z,9.85
2019-05-07T17:59:04.965Z,9.73
2019-05-07T18:01:53.117Z,9.75
2019-05-07T18:04:25.856Z,9.52
2019-05-07T18:06:56.329Z,9.33
2019-05-07T18:09:26.012Z,9.15
2019-05-07T18:11:56.176Z,9.17
2019-05-07T18:14:25.874Z,9.02
2019-05-07T18:17:04.175Z,8.94
2019-05-07T18:19:34.276Z,8.86
2019-05-07T18:22:04.136Z,9.01
2019-05-07T18:24:34.359Z,9.04
2019-05-07T18:27:05.992Z,8.96
2019-05-07T18:29:37.177Z,9.03
2019-05-07T18:32:08.171Z,8.96
2019-05-07T18:34:38.477Z,8.85
2019-05-07T18:37:08.400Z,8.92
2019-05-07T18:39:39.305Z,8.95
2019-05-07T18:42:08.958Z,8.81
2019-05-07T18:44:38.940Z,8.97
2019-05-07T18:47:12.758Z,8.97
2019-05-07T18:49:44.722Z,8.96
2019-05-07T18:52:13.804Z,8.99
2019-05-07T18:54:43.497Z,8.99
2019-05-07T18:57:13.311Z,9.01
2019-05-07T18:59:43.420Z,8.98
2019-05-07T19:02:13.185Z,8.80
2019-05-07T19:04:43.403Z,8.80
2019-05-07T19:07:16.776Z,8.80
2019-05-07T19:09:47.846Z,8.71
2019-05-07T19:12:17.781Z,8.71
2019-05-07T19:14:47.994Z,8.76
2019-05-07T19:17:17.730Z,8.65
2019-05-07T19:19:49.357Z,8.66
2019-05-07T19:22:19.319Z,8.66
2019-05-07T19:24:49.187Z,8.63
2019-05-07T19:27:19.329Z,8.70
2019-05-07T19:29:49.209Z,8.76
2019-05-07T19:32:22.842Z,8.76
2019-05-07T19:34:58.115Z,8.82
2019-05-07T19:37:28.512Z,8.86
2019-05-07T19:39:58.721Z,8.84
2019-05-07T19:42:33.396Z,8.84
2019-05-07T19:45:03.675Z,8.73
2019-05-07T19:47:33.702Z,8.69
2019-05-07T19:50:04.008Z,8.71
2019-05-07T19:52:35.333Z,8.76
2019-05-07T19:55:05.205Z,8.68
2019-05-07T19:57:42.529Z,8.65
2019-05-07T20:00:12.878Z,8.62
2019-05-07T20:02:46.131Z,8.50
2019-05-07T20:05:17.398Z,8.50
2019-05-07T20:07:47.556Z,8.37
2019-05-07T20:10:23.386Z,8.43
2019-05-07T20:12:55.636Z,8.43
2019-05-07T20:15:25.168Z,8.49
2019-05-07T20:17:57.913Z,8.48
2019-05-07T20:20:27.881Z,8.37
2019-05-07T20:23:02.633Z,8.37
2019-05-07T20:25:34.505Z,7.75
2019-05-07T20:28:04.563Z,8.25
2019-05-07T20:30:37.600Z,8.25
2019-05-07T20:33:07.476Z,8.28
2019-05-07T20:35:41.036Z,8.32
2019-05-07T20:38:09.357Z,8.31
2019-05-07T20:40:39.341Z,8.21
2019-05-07T20:43:12.489Z,8.23
2019-05-07T20:45:42.577Z,8.34
2019-05-07T20:48:12.572Z,8.36
2019-05-07T20:50:42.454Z,8.34
2019-05-07T20:53:12.527Z,8.33
2019-05-07T20:55:52.994Z,8.23
2019-05-07T20:58:24.177Z,8.32
2019-05-07T21:00:54.902Z,8.23
2019-05-07T21:03:24.939Z,8.19
2019-05-07T21:05:58.680Z,8.20
2019-05-07T21:08:28.846Z,8.16
2019-05-07T21:11:02.364Z,8.08
2019-05-07T21:13:34.841Z,7.97
2019-05-07T21:16:03.706Z,7.97
2019-05-07T21:18:33.265Z,8.10
2019-05-07T21:21:02.894Z,8.10
2019-05-07T21:23:33.070Z,8.14
2019-05-07T21:26:03.056Z,8.13
2019-05-07T21:28:33.403Z,8.13
2019-05-07T21:31:03.656Z,8.09
2019-05-07T21:33:33.955Z,8.13
2019-05-07T21:36:03.813Z,7.98
2019-05-07T21:38:34.222Z,7.95
2019-05-07T21:41:03.801Z,7.95
2019-05-07T21:43:34.644Z,7.99
2019-05-07T21:46:04.823Z,7.95
2019-05-07T21:48:34.537Z,7.98
2019-05-07T21:51:04.491Z,7.91
2019-05-07T21:53:40.279Z,7.97
2019-05-07T21:56:34.792Z,7.94
2019-05-07T21:59:13.859Z,7.91
2019-05-07T22:01:52.488Z,7.98
2019-05-07T22:04:23.823Z,8.08
2019-05-07T22:06:53.711Z,8.10
2019-05-07T22:09:23.882Z,8.14
2019-05-07T22:11:54.244Z,8.14
2019-05-07T22:14:26.407Z,8.01
2019-05-07T22:16:56.080Z,8.10
2019-05-07T22:19:26.357Z,7.98
2019-05-07T22:21:56.757Z,8.10
2019-05-07T22:24:29.606Z,8.08
2019-05-07T22:27:04.417Z,8.15
2019-05-07T22:29:34.461Z,8.13
2019-05-07T22:32:26.508Z,8.16
2019-05-07T22:35:15.271Z,8.16
2019-05-07T22:37:45.212Z,8.17
2019-05-07T22:40:15.473Z,7.96
2019-05-07T22:42:46.716Z,7.96
2019-05-07T22:45:17.646Z,7.90
2019-05-07T22:47:47.885Z,7.97
2019-05-07T22:50:19.909Z,8.01
2019-05-07T22:52:54.199Z,7.94
2019-05-07T22:55:22.536Z,7.97
2019-05-07T22:58:04.910Z,7.93
2019-05-07T23:00:45.350Z,7.93
2019-05-07T23:03:16.182Z,7.90
2019-05-07T23:05:47.097Z,7.92
2019-05-07T23:08:16.806Z,7.88
2019-05-07T23:10:48.753Z,7.91
2019-05-07T23:13:23.273Z,7.91
2019-05-07T23:15:53.873Z,7.71
2019-05-07T23:18:23.751Z,7.71
2019-05-07T23:20:53.679Z,7.06
2019-05-07T23:23:23.894Z,7.80
2019-05-07T23:25:56.494Z,7.74
2019-05-07T23:28:26.884Z,7.71
2019-05-07T23:30:57.375Z,7.82
2019-05-07T23:33:27.626Z,7.82
2019-05-07T23:35:58.827Z,7.84
2019-05-07T23:38:31.895Z,7.90
2019-05-07T23:41:15.001Z,7.78
2019-05-07T23:44:03.830Z,7.71
2019-05-07T23:46:34.510Z,7.60
2019-05-07T23:49:04.329Z,7.76
2019-05-07T23:51:34.308Z,7.69
2019-05-07T23:54:04.179Z,7.63
2019-05-07T23:56:34.367Z,7.70
2019-05-07T23:59:06.695Z,7.72
